Flag for Portugal

Past Weather in Loures, Lisbon, Portugal — Yesterday and Last 2 Weeks

Currently: 43 °F. Passing clouds. (Weather station: Lisbon Portela Airport, Portugal). See more current weather

Past Weather in Loures — Graph

°F

Loures Temperature Yesterday

Maximum temperature yesterday: 61 °F (at 3:30 pm)
Minimum temperature yesterday: 48 °F (at 10:30 am)
Average temperature yesterday: 52 °F

High & Low Weather Summary for the Past Weeks

 TemperatureHumidityPressure
High61 °F (Jan 15, 3:30 pm)100% (Jan 1, 7:30 am)30.48 "Hg (Jan 1, 7:30 am)
Low30 °F (Jan 13, 6:30 am)40% (Jan 8, 11:00 am)29.65 "Hg (Jan 8, 2:30 pm)
Average45 °F74%30.07 "Hg
* Reported Jan 1 7:00 am — Jan 16 7:00 am, Loures. Weather by CustomWeather, © 2021

Note: Actual official high and low records may vary slightly from our data, if they occured in-between our weather recording intervals... More about our weather records

Loures Weather History for the Previous 24 Hours

Scroll right to see more
 ConditionsComfort  
Time TempWeatherWind HumidityBarometerVisibility
7:00 am
Sat, Jan 16
43 °FClear.6 mph93%30.36 "Hg10 mi
6:30 am45 °FClear.6 mph93%30.36 "Hg10 mi
6:00 am45 °FPassing clouds.5 mph93%30.36 "HgN/A
5:30 am45 °FClear.5 mph93%30.36 "Hg10 mi
5:00 am45 °FClear.6 mph93%30.36 "Hg10 mi
4:30 am46 °FClear.10 mph87%30.36 "Hg10 mi
4:00 am48 °FPassing clouds.9 mph76%30.36 "HgN/A
3:30 am48 °FPassing clouds.10 mph76%30.36 "HgN/A
3:00 am46 °FPassing clouds.9 mph82%30.36 "HgN/A
2:30 am48 °FPassing clouds.15 mph82%30.39 "HgN/A
2:00 am48 °FPassing clouds.15 mph87%30.39 "HgN/A
1:30 am48 °FPassing clouds.14 mph94%30.39 "HgN/A
1:00 am48 °FPassing clouds.15 mph94%30.39 "HgN/A
12:30 am48 °FPassing clouds.13 mph94%30.39 "HgN/A
11:30 pm
Fri, Jan 15
50 °FPassing clouds.14 mph88%30.39 "HgN/A
11:00 pm50 °FPassing clouds.14 mph88%30.39 "HgN/A
10:30 pm48 °FPassing clouds.12 mph94%30.39 "HgN/A
10:00 pm50 °FPassing clouds.14 mph88%30.39 "HgN/A
9:30 pm50 °FClear.9 mph88%30.39 "Hg10 mi
9:00 pm48 °FClear.3 mph87%30.36 "Hg10 mi
8:30 pm50 °FPassing clouds.6 mph88%30.36 "HgN/A
8:00 pm50 °FPassing clouds.8 mph88%30.36 "HgN/A
6:30 pm52 °FPassing clouds.7 mph88%30.36 "HgN/A
6:00 pm54 °FPassing clouds.12 mph82%30.36 "HgN/A
5:30 pm54 °FPassing clouds.10 mph88%30.36 "HgN/A
5:00 pm55 °FPassing clouds.10 mph77%30.36 "HgN/A
4:30 pm57 °FPassing clouds.12 mph77%30.36 "HgN/A
4:00 pm59 °FPassing clouds.12 mph72%30.36 "HgN/A
3:30 pm61 °FPassing clouds.6 mph59%30.36 "HgN/A
3:00 pm57 °FPassing clouds.6 mph72%30.36 "HgN/A
2:30 pm59 °FPassing clouds.5 mph68%30.36 "HgN/A
2:00 pm59 °FPassing clouds.6 mph72%30.36 "HgN/A
1:30 pm55 °FPassing clouds.5 mph82%30.39 "HgN/A
1:00 pm52 °FPassing clouds.5 mph88%30.39 "HgN/A
12:30 pm50 °FFog.7 mph94%30.39 "HgN/A
12:00 pm52 °FFog.7 mph82%30.42 "HgN/A
11:30 am52 °FFog.3 mph88%30.42 "HgN/A
11:00 am50 °FFog.3 mph94%30.42 "HgN/A
10:30 am48 °FFog.5 mph94%30.42 "HgN/A
10:00 am50 °FPassing clouds.9 mph94%30.42 "HgN/A
9:30 am52 °FPassing clouds.7 mph88%30.39 "HgN/A
9:00 am52 °FPassing clouds.10 mph88%30.39 "HgN/A
8:30 am50 °FPassing clouds.14 mph94%30.39 "HgN/A
8:00 am50 °FPassing clouds.12 mph94%30.36 "HgN/A
Weather by CustomWeather, © 2021

See weather overview